Tiempo atmosférico en la estación meteorológica de Arganda Del Rey, Madrid (533 m.)



Fecha
DESCASC
Temp. máxima en grados centígrados (hora)
DESCASC
Temp. mínima en grados centígrados (hora)
DESCASC
Temp. media en grados centígrados
DESCASC
Racha de viento máxima en m/sg (hora)
DESCASC
Velocidad máxima media en intervalos de 10 minutos(hora)
DESCASC
Precipitaciones diarias en mm
DESCASC
Precipitaciones de 00:00 a 06:00 en mm
DESCASC
Precipitaciones de 06:00 a 12:00 en mm
DESCASC
Precipitaciones de 12:00 a 18:00 en mm
DESCASC
Precipitaciones de 18:00 a 24:00 en mm
DESCASC
13-10-2019 26.2 (17:50) 14.7 (08:50) 20.5 9.17 (03:10) 5.83 (01:30) 0.8 0.8 0 0 0
12-10-2019 27.5 (18:30) 16.4 (08:40) 21.9 23.33 (20:50) 15.56 (20:50) 1.4 0 0 0 1.4
11-10-2019 28.6 (18:10) 14 (08:00) 21.3 6.67 (13:10) 3.06 (18:30) 0 0 0 0 0
10-10-2019 28.8 (18:30) 13.6 (00:00) 21.2 8.33 (01:30) 3.89 (01:50) 0 0 0 0 0
09-10-2019 30 (18:20) 12.3 (00:00) 21.2 7.5 (23:20) 3.89 (23:30) 0 0 0 0 0
08-10-2019 30.6 (17:20) 12.1 (00:00) 21.4 5 (17:00) 3.06 (18:20) 0 0 0 0 0
07-10-2019 30.2 (18:20) 11.6 (00:00) 20.9 3.61 (14:30) 1.94 (18:30) 0 0 0 0 0
06-10-2019 29.5 (19:00) 10.1 (00:00) 19.8 6.11 (16:40) 2.5 (14:00) 0 0 0 0 0
05-10-2019 28.9 (17:50) 9.9 (00:00) 19.4 4.17 (16:00) 2.5 (18:30) 0 0 0 0 0
04-10-2019 29.5 (17:40) 9.6 (00:00) 19.6 5.56 (15:30) 3.33 (15:30) 0 0 0 0 0
03-10-2019 26.7 (18:50) 9.8 (00:00) 18.3 3.89 (10:40) 2.5 (10:40) 0 0 0 0 0
02-10-2019 25.9 (18:30) 11.2 (00:00) 18.5 6.94 (03:00) 3.61 (03:00) 0 0 0 0 0
01-10-2019 28.4 (15:50) 10.7 (00:00) 19.5 11.39 (17:00) 6.94 (17:20) 0 0 0 0 0
30-09-2019 30.5 (17:20) 10.1 (00:00) 20.3 6.39 (17:20) 4.17 (16:30) 0 0 0 0 0
29-09-2019 30.6 (17:10) 10.7 (00:00) 20.7 7.78 (16:40) 4.44 (15:40) 0 0 0 0 0
28-09-2019 29.9 (19:10) 11.4 (00:00) 20.6 5 (15:20) 2.78 (15:20) 0 0 0 0 0
27-09-2019 29.4 (17:00) 13.1 (00:00) 21.3 7.22 (16:50) 4.17 (16:30) 0 0 0 0 0
26-09-2019 28.9 (18:00) 13.3 (00:00) 21.1 5.83 (15:20) 3.61 (14:50) 0 0 0 0 0
25-09-2019 26 (17:20) 14.4 (00:00) 20.2 8.89 (13:20) 3.33 (04:40) 0 0 0 0 0
24-09-2019 27.2 (16:30) 10.9 (00:00) 19.1 10.28 (20:40) 6.67 (18:10) 0 0 0 0 0
23-09-2019 24.2 (18:20) 11.3 (00:00) 17.8 5.83 (16:10) 3.33 (14:10) 0 0 0 0 0
22-09-2019 23.4 (17:10) 15.7 (00:00) 19.5 8.61 (13:30) 6.11 (13:30) 1.4 0 1.4 0 0
21-09-2019 21.7 (14:40) 15.7 (00:00) 18.7 6.11 (13:20) 4.44 (12:30) 0.2 0 0 0.2 0
20-09-2019 25.9 (16:30) 17.4 (00:00) 21.6 19.72 (21:10) 11.67 (21:10) 2.4 0 0 0 2.4
19-09-2019 29.9 (17:50) 16.4 (00:00) 23.1 4.72 (16:40) 2.5 (16:40) 0 0 0 0 0
18-09-2019 28.5 (18:20) 15.6 (00:00) 22.1 6.11 (00:30) 4.17 (00:30) 0 0 0 0 0
17-09-2019 29.6 (17:10) 16.2 (00:00) 22.9 9.72 (20:10) 6.11 (20:10) 0 0 0 0 0
16-09-2019 26.8 (17:30) 16.3 (00:00) 21.5 5 (02:40) 3.06 (18:00) 28 28 0 0 0

Gráficas

Temp. máximas Temp. mínimas Temp. medias Precipitaciones Rachas de viento máximas Velocidades máximas media en intervalos de 10 minutos

Datos horarios

Fecha y hora oficial Temperatura (ºC) Velocidad del viento (km/h) Dirección del viento Racha (km/h) Dirección de racha Precipitación (mm) Presión (hPa) Tendencia (hPa) Humedad (%)
2019-10-15 23:00:00 10 0 Calma 4 Sudeste 0 -- -- 67
2019-10-15 22:00:00 10.9 0 Calma 7 Sur 0 -- -- 65
2019-10-15 21:00:00 12.1 5 Sur 10 Sur 0 -- -- 59
2019-10-15 20:00:00 13.5 7 Sur 16 Sudoeste 0 -- -- 54
2019-10-15 19:00:00 15.9 13 Sudoeste 22 Sudoeste 0 -- -- 44
2019-10-15 18:00:00 17.4 13 Sudoeste 23 Sudoeste 0 -- -- 42
2019-10-15 17:00:00 17.4 11 Sudoeste 25 Sudoeste 0 -- -- 43
2019-10-15 16:00:00 16.9 15 Sudoeste 23 Sudoeste 0 -- -- 45
2019-10-15 15:00:00 16.3 15 Sudoeste 27 Sudoeste 0 -- -- 49
2019-10-15 14:00:00 15.8 14 Sudoeste 21 Sudoeste 0 -- -- 51
2019-10-15 13:00:00 15.1 8 Sudoeste 18 Oeste 0 -- -- 50
2019-10-15 12:00:00 13.8 10 Sur 15 Sur 0 -- -- 60
2019-10-15 11:00:00 12.6 5 Sudeste 9 Sudeste 0 -- -- 62
2019-10-15 10:00:00 10 6 Este 12 Sudoeste 0 -- -- 71
2019-10-15 09:00:00 7 3 Sudeste 14 Sudoeste 0 -- -- 83
2019-10-15 08:00:00 6.9 8 Sur 19 Oeste 0 -- -- 79
2019-10-15 07:00:00 7.9 10 Oeste 16 Oeste 0 -- -- 76
2019-10-15 06:00:00 8.3 6 Oeste 17 Oeste 0 -- -- 73
2019-10-15 05:00:00 7.5 3 Sur 11 Oeste 0 -- -- 78
2019-10-15 04:00:00 8.7 11 Oeste 21 Oeste 0 -- -- 75
2019-10-15 03:00:00 8.9 4 Noroeste 17 Oeste 0 -- -- 76
2019-10-15 02:00:00 9.9 12 Oeste 20 Sudoeste 0 -- -- 86
2019-10-15 01:00:00 10.2 5 Sudoeste 19 Sudoeste 0 -- -- 90
2019-10-15 00:00:00 10.8 12 Oeste 17 Sudoeste 0 -- -- 90
2019-10-14 23:00:00 11.3 13 Sudoeste 24 Sudoeste 0 -- -- 85
2019-10-14 22:00:00 11.8 13 Sudoeste 25 Sudoeste 0 -- -- 88
2019-10-14 21:00:00 11.8 13 Sudoeste 22 Sudoeste 0 -- -- 87
2019-10-14 20:00:00 11.9 15 Sudoeste 51 Oeste 1 -- -- 86
2019-10-14 19:00:00 13.8 38 Oeste 68 Oeste 0 -- -- 69
2019-10-14 18:00:00 18.8 21 Sudoeste 33 Oeste 0 -- -- 51
2019-10-14 17:00:00 20.5 25 Sudoeste 38 Sudoeste 0 -- -- 47
2019-10-14 16:00:00 19.9 20 Sudoeste 35 Oeste 0 -- -- 52
2019-10-14 15:00:00 19.9 24 Sudoeste 37 Sudoeste 0 -- -- 57
2019-10-14 14:00:00 19.1 23 Oeste 40 Sudoeste 0 -- -- 63
2019-10-14 13:00:00 17.9 26 Sudoeste 48 Sudoeste 0 -- -- 75
2019-10-14 12:00:00 20.2 29 Sudoeste 45 Sudoeste 0 -- -- 59
2019-10-14 11:00:00 19.7 20 Sudoeste 30 Sudoeste 0 -- -- 65
2019-10-14 10:00:00 18.2 14 Sudoeste 30 Sudoeste 0 -- -- 73
2019-10-14 09:00:00 17.4 17 Sudoeste 26 Sudoeste 0 -- -- 70
2019-10-14 08:00:00 17.8 11 Sudoeste 20 Sudoeste 0 -- -- 69
2019-10-14 07:00:00 17 10 Sur 19 Sudeste 0 -- -- 75
2019-10-14 06:00:00 15.6 2 Nordeste 6 Noroeste 0 -- -- 77
2019-10-14 05:00:00 16.3 4 Noroeste 9 Noroeste 0 -- -- 69
2019-10-14 04:00:00 16.6 0 Calma 7 Noroeste 0 -- -- 63
2019-10-14 03:00:00 16.5 4 Sur 14 Norte 0 -- -- 72
2019-10-14 02:00:00 16.6 4 Nordeste 11 Nordeste 0 -- -- 78
2019-10-14 01:00:00 16.8 5 Nordeste 9 Nordeste 0 -- -- 76
2019-10-14 00:00:00 16.6 4 Nordeste 9 Nordeste 0 -- -- 80
2019-10-13 23:00:00 17.1 3 Nordeste 9 Nordeste 0 -- -- 79
2019-10-13 22:00:00 18.1 3 Nordeste 10 Nordeste 0 -- -- 75
2019-10-13 21:00:00 19.4 2 Nordeste 9 Nordeste 0 -- -- 72
2019-10-13 20:00:00 22.1 2 Este 5 Nordeste 0 -- -- 65
2019-10-13 19:00:00 25.1 3 Noroeste 11 Noroeste 0 -- -- 53
2019-10-13 18:00:00 26.1 4 Noroeste 14 Noroeste 0 -- -- 51
2019-10-13 17:00:00 24.9 8 Oeste 17 Oeste 0 -- -- 53
2019-10-13 16:00:00 23.8 10 Oeste 17 Oeste 0 -- -- 54
2019-10-13 15:00:00 22.6 14 Oeste 28 Sudoeste 0 -- -- 58
2019-10-13 14:00:00 22 16 Sudoeste 26 Oeste 0 -- -- 60
2019-10-13 13:00:00 21.2 13 Sudoeste 19 Sudoeste 0 -- -- 64
2019-10-13 12:00:00 20 12 Sudoeste 18 Sudoeste 0 -- -- 72
2019-10-13 11:00:00 19 9 Sudoeste 13 Sudoeste 0 -- -- 79
2019-10-13 10:00:00 16.8 6 Oeste 8 Oeste 0 -- -- 87
2019-10-13 09:00:00 14.9 2 Oeste 5 Oeste 0 -- -- 89
2019-10-13 08:00:00 15.8 3 Sur 11 Sur 0 -- -- 86
2019-10-13 07:00:00 16.7 7 Sudoeste 12 Sudoeste 0 -- -- 84
2019-10-13 06:00:00 16.7 0 Calma 7 Oeste 0 -- -- 85
2019-10-13 05:00:00 17.2 3 Oeste 8 Oeste 0 -- -- 81
2019-10-13 04:00:00 18 7 Sur 33 Sudeste 0 -- -- 75
2019-10-13 03:00:00 18.4 4 Sudoeste 15 Este 0 -- -- 74
2019-10-13 02:00:00 17.7 8 Este 30 Sudeste 0 -- -- 69
2019-10-13 01:00:00 17.1 16 Sudeste 25 Sudeste 0.8 -- -- 77
2019-10-13 00:00:00 17.7 8 Este 49 Sudoeste 0.4 -- -- 72
2019-10-12 23:00:00 18.5 5 Oeste 49 Sudeste 0.4 -- -- 73
2019-10-12 22:00:00 19.7 30 Sudeste 55 Sur 0.6 -- -- 60
2019-10-12 21:00:00 18.4 30 Oeste 84 Oeste 0 -- -- 65
2019-10-12 20:00:00 23 6 Este 10 Sudeste 0 -- -- 47
2019-10-12 19:00:00 26.3 5 Sudeste 17 Sudeste 0 -- -- 40
2019-10-12 18:00:00 26.2 12 Sudeste 22 Sur 0 -- -- 42
2019-10-12 17:00:00 27.1 14 Sur 26 Sudeste 0 -- -- 39
2019-10-12 16:00:00 26.9 11 Sudeste 19 Sudeste 0 -- -- 41
2019-10-12 15:00:00 26.1 4 Noroeste 15 Oeste 0 -- -- 47
2019-10-12 14:00:00 25.3 6 Sudoeste 15 Sudoeste 0 -- -- 53
2019-10-12 13:00:00 23.5 6 Sudoeste 12 Sur 0 -- -- 54
2019-10-12 12:00:00 21.9 8 Sudeste 25 Sudeste 0 -- -- 60
2019-10-12 11:00:00 21.1 13 Este 22 Este 0 -- -- 64
2019-10-12 10:00:00 19.3 6 Nordeste 12 Este 0 -- -- 73
2019-10-12 09:00:00 16.6 3 Nordeste 13 Sudoeste 0 -- -- 81
2019-10-12 08:00:00 17.3 4 Sudeste 8 Noroeste 0 -- -- 77
2019-10-12 07:00:00 18.3 3 Oeste 10 Este 0 -- -- 72
2019-10-12 06:00:00 18.6 3 Norte 12 Sudeste 0 -- -- 71
2019-10-12 05:00:00 19.3 7 Sudeste 19 Este 0 -- -- 67
2019-10-12 04:00:00 19.9 4 Este 18 Sudeste 0 -- -- 63
2019-10-12 03:00:00 19.9 5 Sudeste 12 Sur 0 -- -- 62
2019-10-12 02:00:00 20.2 2 Sur 10 Sur 0 -- -- 58
2019-10-12 01:00:00 21.4 2 Sudeste 10 Sur 0 -- -- 53
2019-10-12 00:00:00 22.3 3 Sudoeste 7 Sur 0 -- -- 48
2019-10-11 23:00:00 22.4 2 Oeste 9 Sur 0 -- -- 50
2019-10-11 22:00:00 22.3 3 Sur 6 Sudeste 0 -- -- 58
2019-10-11 21:00:00 22.9 0 Calma 4 Nordeste 0 -- -- 56
2019-10-11 20:00:00 24.2 0 Calma 8 Sur 0 -- -- 55
2019-10-11 19:00:00 26.8 8 Sur 19 Sur 0 -- -- 45
2019-10-11 18:00:00 28.4 7 Sudoeste 14 Sudeste 0 -- -- 45
2019-10-11 17:00:00 28.4 7 Oeste 16 Este 0 -- -- 45
2019-10-11 16:00:00 27.1 9 Sur 18 Sudeste 0 -- -- 48
2019-10-11 15:00:00 26.3 7 Este 14 Sur 0 -- -- 53
2019-10-11 14:00:00 24.8 7 Este 24 Este 0 -- -- 56
2019-10-11 13:00:00 23.7 6 Sudeste 23 Sudeste 0 -- -- 59
2019-10-11 12:00:00 21.8 4 Nordeste 9 Nordeste 0 -- -- 63
2019-10-11 11:00:00 19.9 4 Nordeste 9 Este 0 -- -- 69
2019-10-11 10:00:00 17.3 0 Calma 7 Este 0 -- -- 73
2019-10-11 09:00:00 14.6 3 Nordeste 8 Este 0 -- -- 82
2019-10-11 08:00:00 14 2 Nordeste 5 Nordeste 0 -- -- 82
2019-10-11 07:00:00 14.7 4 Nordeste 11 Este 0 -- -- 81
2019-10-11 06:00:00 15.2 5 Nordeste 11 Nordeste 0 -- -- 79
2019-10-11 05:00:00 16.4 5 Nordeste 8 Nordeste 0 -- -- 78
2019-10-11 04:00:00 17.6 5 Nordeste 9 Nordeste 0 -- -- 77
2019-10-11 03:00:00 18.9 3 Nordeste 13 Sudeste 0 -- -- 73
2019-10-11 02:00:00 19.7 0 Calma 12 Este 0 -- -- 69
2019-10-11 01:00:00 20.5 5 Sudeste 23 Este 0 -- -- 66
2019-10-11 00:00:00 20.8 8 Sudeste 22 Sudeste 0 -- -- 64
2019-10-10 23:00:00 19.6 5 Sudoeste 10 Oeste 0 -- -- 68
2019-10-10 22:00:00 21.5 4 Este 9 Nordeste 0 -- -- 61
2019-10-10 21:00:00 22 3 Nordeste 6 Nordeste 0 -- -- 59
2019-10-10 20:00:00 24.8 3 Norte 6 Norte 0 -- -- 52
2019-10-10 19:00:00 28.3 3 Noroeste 9 Noroeste 0 -- -- 45
2019-10-10 18:00:00 28.6 5 Sudoeste 11 Oeste 0 -- -- 43
2019-10-10 17:00:00 28.6 3 Norte 13 Noroeste 0 -- -- 45
2019-10-10 16:00:00 28.1 6 Norte 15 Este 0 -- -- 49
2019-10-10 15:00:00 26.1 8 Nordeste 16 Nordeste 0 -- -- 52
2019-10-10 14:00:00 24.9 9 Norte 17 Norte 0 -- -- 54
2019-10-10 13:00:00 23.3 8 Norte 20 Norte 0 -- -- 55
2019-10-10 12:00:00 21.1 9 Norte 18 Norte 0 -- -- 57
2019-10-10 11:00:00 19.2 6 Norte 10 Norte 0 -- -- 59
2019-10-10 10:00:00 16.5 3 Norte 15 Nordeste 0 -- -- 63
2019-10-10 09:00:00 14.8 6 Nordeste 14 Nordeste 0 -- -- 65
2019-10-10 08:00:00 14.1 6 Nordeste 13 Nordeste 0 -- -- 67
2019-10-10 07:00:00 14 0 Calma 10 Norte 0 -- -- 67
2019-10-10 06:00:00 15.1 5 Nordeste 17 Norte 0 -- -- 65
2019-10-10 05:00:00 15.3 6 Norte 19 Nordeste 0 -- -- 64
2019-10-10 04:00:00 15.9 9 Nordeste 22 Norte 0 -- -- 62
2019-10-10 03:00:00 16.3 11 Norte 23 Norte 0 -- -- 61
2019-10-10 02:00:00 17.7 13 Norte 30 Norte 0 -- -- 58
2019-10-10 01:00:00 19.2 10 Norte 22 Nordeste 0 -- -- 55
2019-10-10 00:00:00 20.9 9 Norte 27 Nordeste 0 -- -- 45
2019-10-09 23:00:00 21.6 9 Nordeste 17 Norte 0 -- -- 49
2019-10-09 22:00:00 20.5 0 Calma 17 Norte 0 -- -- 57
2019-10-09 21:00:00 21.9 3 Norte 6 Nordeste 0 -- -- 56
2019-10-09 20:00:00 25 0 Calma 8 Este 0 -- -- 46
2019-10-09 19:00:00 28.5 5 Este 8 Este 0 -- -- 39
2019-10-09 18:00:00 29.7 3 Sur 10 Sudoeste 0 -- -- 35
2019-10-09 17:00:00 29.7 4 Sur 10 Oeste 0 -- -- 36
2019-10-09 16:00:00 28.8 4 Este 11 Norte 0 -- -- 37
2019-10-09 15:00:00 28.2 2 Sur 13 Nordeste 0 -- -- 39
2019-10-09 14:00:00 26.6 5 Nordeste 12 Este 0 -- -- 42
2019-10-09 13:00:00 24.8 6 Norte 14 Norte 0 -- -- 48
2019-10-09 12:00:00 22.6 3 Sudoeste 10 Noroeste 0 -- -- 55
2019-10-09 11:00:00 19.9 3 Noroeste 8 Sur 0 -- -- 60
2019-10-09 10:00:00 17.4 4 Norte 15 Este 0 -- -- 66
2019-10-09 09:00:00 14.2 2 Sudeste 10 Nordeste 0 -- -- 75
2019-10-09 08:00:00 12.3 3 Nordeste 6 Nordeste 0 -- -- 79
2019-10-09 07:00:00 13.6 4 Nordeste 6 Nordeste 0 -- -- 75
2019-10-09 06:00:00 13.8 4 Este 9 Nordeste 0 -- -- 73
2019-10-09 05:00:00 13.1 3 Noroeste 6 Noroeste 0 -- -- 78
2019-10-09 04:00:00 13.7 3 Nordeste 7 Nordeste 0 -- -- 76
2019-10-09 03:00:00 14.5 2 Nordeste 6 Este 0 -- -- 73
2019-10-09 02:00:00 15.1 3 Este 7 Norte 0 -- -- 72
2019-10-09 01:00:00 16.1 3 Este 6 Este 0 -- -- 66
2019-10-09 00:00:00 17.3 0 Calma 7 Nordeste 0 -- -- 66
2019-10-08 23:00:00 18.6 0 Calma 6 Nordeste 0 -- -- 61
2019-10-08 22:00:00 20.3 3 Nordeste 6 Nordeste 0 -- -- 55
2019-10-08 21:00:00 22.1 2 Nordeste 4 Nordeste 0 -- -- 53
2019-10-08 20:00:00 26.8 2 Sudeste 6 Sur 0 -- -- 39
2019-10-08 19:00:00 29.5 7 Sur 15 Sudoeste 0 -- -- 32
2019-10-08 18:00:00 30.1 8 Sudoeste 18 Sudoeste 0 -- -- 31
2019-10-08 17:00:00 30.2 10 Sur 18 Sur 0 -- -- 32
2019-10-08 16:00:00 29.3 9 Sudoeste 16 Sudoeste 0 -- -- 34
2019-10-08 15:00:00 28 4 Noroeste 12 Oeste 0 -- -- 37
2019-10-08 14:00:00 26.7 4 Sudoeste 8 Sudoeste 0 -- -- 39
2019-10-08 13:00:00 24.9 3 Norte 8 Norte 0 -- -- 44
2019-10-08 12:00:00 22.6 2 Norte 10 Este 0 -- -- 48
2019-10-08 11:00:00 20.2 5 Este 10 Este 0 -- -- 52
2019-10-08 10:00:00 16.3 3 Nordeste 8 Este 0 -- -- 62
2019-10-08 09:00:00 13.3 3 Este 9 Nordeste 0 -- -- 72
2019-10-08 08:00:00 12.4 6 Nordeste 10 Este 0 -- -- 72
2019-10-08 07:00:00 12.3 0 Calma 6 Este 0 -- -- 74
2019-10-08 06:00:00 13.5 5 Este 8 Este 0 -- -- 68
2019-10-08 05:00:00 13.8 4 Este 9 Este 0 -- -- 68
2019-10-08 04:00:00 13.2 3 Este 7 Oeste 0 -- -- 77
2019-10-08 03:00:00 14.5 3 Sur 9 Sudoeste 0 -- -- 68
2019-10-08 02:00:00 16.4 0 Calma 17 Este 0 -- -- 62
2019-10-08 01:00:00 16 3 Este 8 Nordeste 0 -- -- 65
2019-10-08 00:00:00 16.8 3 Nordeste 9 Sur 0 -- -- 65
2019-10-07 23:00:00 17.7 3 Este 8 Sudeste 0 -- -- 62
2019-10-07 22:00:00 19 2 Nordeste 8 Oeste 0 -- -- 61
2019-10-07 21:00:00 21.2 2 Norte 9 Sudoeste 0 -- -- 56
2019-10-07 20:00:00 25 0 Calma 7 Sudoeste 0 -- -- 44
2019-10-07 19:00:00 28.3 6 Sudoeste 13 Oeste 0 -- -- 37
2019-10-07 18:00:00 29.5 3 Norte 8 Noroeste 0 -- -- 30
2019-10-07 17:00:00 29.1 4 Noroeste 9 Sudoeste 0 -- -- 32
2019-10-07 16:00:00 27.7 7 Sudoeste 12 Sur 0 -- -- 31
2019-10-07 15:00:00 26 6 Sudoeste 13 Sudoeste 0 -- -- 32
2019-10-07 14:00:00 24.5 2 Norte 8 Sudeste 0 -- -- 41
2019-10-07 13:00:00 23.3 0 Calma 9 Sudoeste 0 -- -- 48
2019-10-07 12:00:00 21.7 3 Sudoeste 9 Sudoeste 0 -- -- 51
2019-10-07 11:00:00 19.8 2 Este 5 Sudoeste 0 -- -- 57
2019-10-07 10:00:00 16.4 2 Sur 5 Sur 0 -- -- 70
2019-10-07 09:00:00 13.7 2 Nordeste 8 Nordeste 0 -- -- 74
2019-10-07 08:00:00 11.7 2 Nordeste 11 Nordeste 0 -- -- 76
2019-10-07 07:00:00 12.3 4 Nordeste 8 Nordeste 0 -- -- 72
2019-10-07 06:00:00 12.1 2 Noroeste 12 Este 0 -- -- 74
2019-10-07 05:00:00 11.9 5 Nordeste 8 Nordeste 0 -- -- 74
2019-10-07 04:00:00 12.3 4 Nordeste 6 Este 0 -- -- 77
2019-10-07 03:00:00 12.4 4 Sur 6 Sur 0 -- -- 75
2019-10-07 02:00:00 13.3 0 Calma 6 Este 0 -- -- 70
2019-10-07 01:00:00 14.3 0 Calma 4 Este 0 -- -- 67
2019-10-07 00:00:00 15.7 2 Nordeste 7 Sudeste 0 -- -- 64
2019-10-06 23:00:00 16.9 0 Calma 9 Nordeste 0 -- -- 60
2019-10-06 22:00:00 19.2 7 Nordeste 14 Nordeste 0 -- -- 51
2019-10-06 21:00:00 21.9 3 Sudeste 16 Noroeste 0 -- -- 44
2019-10-06 20:00:00 25.3 4 Sudeste 8 Este 0 -- -- 38
2019-10-06 19:00:00 29.5 3 Sur 8 Sudoeste 0 -- -- 29
2019-10-06 18:00:00 29.4 4 Sur 10 Oeste 0 -- -- 28
2019-10-06 17:00:00 28.5 7 Sudoeste 22 Oeste 0 -- -- 29
2019-10-06 16:00:00 28 6 Sudoeste 17 Sudoeste 0 -- -- 31
2019-10-06 15:00:00 27 6 Oeste 15 Sur 0 -- -- 34
2019-10-06 14:00:00 25.5 9 Sudoeste 14 Sudoeste 0 -- -- 39
2019-10-06 13:00:00 23.8 3 Oeste 8 Noroeste 0 -- -- 47
2019-10-06 12:00:00 21.2 5 Este 9 Nordeste 0 -- -- 54
2019-10-06 11:00:00 18.1 4 Este 12 Este 0 -- -- 61
2019-10-06 10:00:00 15.2 2 Sur 8 Nordeste 0 -- -- 70
2019-10-06 09:00:00 11.4 3 Nordeste 8 Este 0 -- -- 82
2019-10-06 08:00:00 10.5 3 Nordeste 8 Este 0 -- -- 84
2019-10-06 07:00:00 10.8 6 Nordeste 10 Nordeste 0 -- -- 85
2019-10-06 06:00:00 10.9 3 Nordeste 5 Nordeste 0 -- -- 84
2019-10-06 05:00:00 11.1 3 Nordeste 5 Este 0 -- -- 83
2019-10-06 04:00:00 12 0 Calma 6 Nordeste 0 -- -- 81
2019-10-06 03:00:00 12.8 0 Calma 6 Nordeste 0 -- -- 75
2019-10-06 02:00:00 13.8 5 Este 6 Este 0 -- -- 74
2019-10-06 01:00:00 14.9 3 Nordeste 5 Este 0 -- -- 71
2019-10-06 00:00:00 15.8 0 Calma 2 Noroeste 0 -- -- 68
2019-10-05 23:00:00 17.6 4 Nordeste 8 Nordeste 0 -- -- 60
2019-10-05 22:00:00 18.9 3 Este 5 Este 0 -- -- 58
2019-10-05 21:00:00 21.2 2 Nordeste 4 Sur 0 -- -- 52
2019-10-05 20:00:00 25.6 3 Sur 8 Sur 0 -- -- 42
2019-10-05 19:00:00 27.8 5 Sudoeste 14 Sur 0 -- -- 35
2019-10-05 18:00:00 28.8 5 Sudoeste 12 Sudoeste 0 -- -- 32
2019-10-05 17:00:00 28.2 5 Sur 14 Sudoeste 0 -- -- 33
2019-10-05 16:00:00 27.8 5 Sur 15 Sudoeste 0 -- -- 36
2019-10-05 15:00:00 26.3 8 Sudoeste 14 Oeste 0 -- -- 38
2019-10-05 14:00:00 25.3 5 Sudoeste 11 Sudoeste 0 -- -- 44
2019-10-05 13:00:00 23.4 4 Sudoeste 10 Sudoeste 0 -- -- 47
2019-10-05 12:00:00 21.5 2 Nordeste 9 Nordeste 0 -- -- 53
2019-10-05 11:00:00 18.4 6 Nordeste 11 Este 0 -- -- 62
2019-10-05 10:00:00 15.6 4 Este 8 Nordeste 0 -- -- 69
2019-10-05 09:00:00 11.3 3 Nordeste 6 Nordeste 0 -- -- 78
2019-10-05 08:00:00 10.2 3 Este 5 Este 0 -- -- 79
2019-10-05 07:00:00 11.1 2 Nordeste 8 Nordeste 0 -- -- 75
2019-10-05 06:00:00 11.3 4 Nordeste 7 Nordeste 0 -- -- 75
2019-10-05 05:00:00 11.9 3 Nordeste 9 Nordeste 0 -- -- 72
2019-10-05 04:00:00 11.7 2 Norte 4 Norte 0 -- -- 76
2019-10-05 03:00:00 13 3 Nordeste 6 Nordeste 0 -- -- 70
2019-10-05 02:00:00 13.1 0 Calma 6 Este 0 -- -- 72
2019-10-05 01:00:00 14.3 0 Calma 5 Sudoeste 0 -- -- 69
2019-10-05 00:00:00 15.1 0 Calma 4 Norte 0 -- -- 63
2019-10-04 23:00:00 16.1 0 Calma 6 Sudoeste 0 -- -- 61
2019-10-04 22:00:00 18.1 2 Nordeste 6 Noroeste 0 -- -- 54
2019-10-04 21:00:00 20.9 3 Este 5 Sudeste 0 -- -- 43
2019-10-04 20:00:00 25 4 Sur 14 Sudoeste 0 -- -- 34
2019-10-04 19:00:00 28 9 Sudoeste 15 Sudoeste 0 -- -- 29
2019-10-04 18:00:00 29.4 6 Sur 12 Sur 0 -- -- 29
2019-10-04 17:00:00 28.5 3 Este 10 Oeste 0 -- -- 29
2019-10-04 16:00:00 26.5 6 Sudoeste 20 Sudoeste 0 -- -- 32
2019-10-04 15:00:00 26.4 10 Sudoeste 17 Sudoeste 0 -- -- 32
2019-10-04 14:00:00 24.2 6 Sudoeste 11 Oeste 0 -- -- 40
2019-10-04 13:00:00 22.8 4 Oeste 11 Oeste 0 -- -- 43
2019-10-04 12:00:00 20.7 3 Sur 6 Sudoeste 0 -- -- 46
2019-10-04 11:00:00 17.3 2 Nordeste 12 Nordeste 0 -- -- 53
2019-10-04 10:00:00 15.1 3 Este 5 Este 0 -- -- 61
2019-10-04 09:00:00 11.2 0 Calma 6 Norte 0 -- -- 76
2019-10-04 08:00:00 10 3 Este 5 Este 0 -- -- 76
2019-10-04 07:00:00 10.4 4 Este 8 Nordeste 0 -- -- 76
2019-10-04 06:00:00 10.5 3 Nordeste 9 Nordeste 0 -- -- 74
2019-10-04 05:00:00 10.2 3 Nordeste 6 Nordeste 0 -- -- 77
2019-10-04 04:00:00 10.9 4 Este 5 Nordeste 0 -- -- 74
2019-10-04 03:00:00 12 4 Nordeste 6 Nordeste 0 -- -- 70
2019-10-04 02:00:00 12.8 3 Este 8 Este 0 -- -- 67
2019-10-04 01:00:00 13.7 0 Calma 8 Nordeste 0 -- -- 66
2019-10-04 00:00:00 15.3 3 Nordeste 10 Este 0 -- -- 60
2019-10-03 23:00:00 16.4 2 Nordeste 6 Oeste 0 -- -- 58
2019-10-03 22:00:00 17.8 0 Calma 4 Norte 0 -- -- 55
2019-10-03 21:00:00 19.5 0 Calma 5 Sudoeste 0 -- -- 49
2019-10-03 20:00:00 22.7 3 Nordeste 9 Este 0 -- -- 43
2019-10-03 19:00:00 26.4 4 Este 8 Este 0 -- -- 33
2019-10-03 18:00:00 26.2 3 Este 6 Este 0 -- -- 32
2019-10-03 17:00:00 25.5 3 Nordeste 10 Nordeste 0 -- -- 33
2019-10-03 16:00:00 24.9 3 Oeste 12 Sur 0 -- -- 33
2019-10-03 15:00:00 23.6 4 Sudoeste 12 Sudoeste 0 -- -- 36
2019-10-03 14:00:00 22.1 6 Sudoeste 12 Sudoeste 0 -- -- 39
2019-10-03 13:00:00 20.4 6 Sudoeste 12 Oeste 0 -- -- 45
2019-10-03 12:00:00 18.5 2 Nordeste 10 Este 0 -- -- 55
2019-10-03 11:00:00 16.2 7 Nordeste 14 Este 0 -- -- 60
2019-10-03 10:00:00 13.9 5 Nordeste 9 Este 0 -- -- 70
2019-10-03 09:00:00 10.5 4 Nordeste 5 Nordeste 0 -- -- 79
2019-10-03 08:00:00 10.1 4 Este 7 Nordeste 0 -- -- 80
2019-10-03 07:00:00 9.9 2 Nordeste 5 Nordeste 0 -- -- 81
2019-10-03 06:00:00 10.2 2 Norte 5 Sur 0 -- -- 80
2019-10-03 05:00:00 10.8 0 Calma 4 Sudeste 0 -- -- 77
2019-10-03 04:00:00 12.1 2 Este 6 Noroeste 0 -- -- 74
2019-10-03 03:00:00 12.2 3 Noroeste 8 Sur 0 -- -- 72
2019-10-03 02:00:00 13.2 0 Calma 8 Nordeste 0 -- -- 66
2019-10-03 01:00:00 13.5 3 Sudeste 8 Norte 0 -- -- 64
2019-10-03 00:00:00 14.5 0 Calma 8 Sudeste 0 -- -- 61
2019-10-02 23:00:00 16.4 0 Calma 10 Nordeste 0 -- -- 55
2019-10-02 22:00:00 18.7 5 Nordeste 15 Norte 0 -- -- 47
2019-10-02 21:00:00 19.3 5 Nordeste 16 Norte 0 -- -- 45
2019-10-02 20:00:00 22.4 7 Norte 14 Noroeste 0 -- -- 37
2019-10-02 19:00:00 24.9 7 Norte 18 Norte 0 -- -- 33
2019-10-02 18:00:00 25.7 6 Norte 21 Noroeste 0 -- -- 31
2019-10-02 17:00:00 25.1 8 Noroeste 25 Noroeste 0 -- -- 31
2019-10-02 16:00:00 24.3 9 Noroeste 18 Norte 0 -- -- 30
2019-10-02 15:00:00 23.6 9 Noroeste 24 Noroeste 0 -- -- 35
2019-10-02 14:00:00 22.7 8 Norte 21 Norte 0 -- -- 35
2019-10-02 13:00:00 21.4 9 Norte 19 Norte 0 -- -- 40
2019-10-02 12:00:00 20.2 11 Norte 21 Nordeste 0 -- -- 47
2019-10-02 11:00:00 18.3 7 Nordeste 15 Norte 0 -- -- 56
2019-10-02 10:00:00 16.1 3 Nordeste 8 Nordeste 0 -- -- 67
2019-10-02 09:00:00 12.1 4 Nordeste 8 Nordeste 0 -- -- 79
2019-10-02 08:00:00 11.5 0 Calma 6 Nordeste 0 -- -- 78
2019-10-02 07:00:00 12.8 0 Calma 6 Sudoeste 0 -- -- 73
2019-10-02 06:00:00 14.1 4 Sudoeste 11 Oeste 0 -- -- 68
2019-10-02 05:00:00 15.1 3 Oeste 14 Este 0 -- -- 65
2019-10-02 04:00:00 17 8 Noroeste 19 Noroeste 0 -- -- 58
2019-10-02 03:00:00 18.5 13 Noroeste 25 Oeste 0 -- -- 53
2019-10-02 02:00:00 18.2 5 Oeste 17 Oeste 0 -- -- 54
2019-10-02 01:00:00 16.4 4 Nordeste 8 Noroeste 0 -- -- 62
2019-10-02 00:00:00 17.5 0 Calma 10 Oeste 0 -- -- 57
2019-10-01 23:00:00 19.4 3 Oeste 15 Oeste 0 -- -- 51
2019-10-01 22:00:00 20.9 7 Oeste 21 Noroeste 0 -- -- 47
2019-10-01 21:00:00 21.7 14 Noroeste 31 Noroeste 0 -- -- 46
2019-10-01 20:00:00 23.4 14 Noroeste 29 Oeste 0 -- -- 43
2019-10-01 19:00:00 25.5 17 Oeste 34 Oeste 0 -- -- 40
2019-10-01 18:00:00 26.7 21 Oeste 40 Noroeste 0 -- -- 39
2019-10-01 17:00:00 27.4 22 Oeste 41 Oeste 0 -- -- 31
2019-10-01 16:00:00 28.2 12 Noroeste 31 Sudoeste 0 -- -- 33
2019-10-01 15:00:00 27.6 11 Oeste 28 Noroeste 0 -- -- 31
2019-10-01 14:00:00 26.2 9 Oeste 18 Oeste 0 -- -- 33
2019-10-01 13:00:00 23.4 4 Sur 12 Sur 0 -- -- 38
2019-10-01 12:00:00 21.1 6 Sudoeste 13 Sudoeste 0 -- -- 44
2019-10-01 11:00:00 18.3 3 Sudoeste 6 Sudoeste 0 -- -- 52
2019-10-01 10:00:00 15.4 6 Este 12 Este 0 -- -- 59
2019-10-01 09:00:00 11.9 4 Nordeste 8 Nordeste 0 -- -- 75
2019-10-01 08:00:00 10.8 0 Calma 2 Norte 0 -- -- 79
2019-10-01 07:00:00 11.3 3 Este 8 Nordeste 0 -- -- 78
2019-10-01 06:00:00 12.2 5 Nordeste 10 Nordeste 0 -- -- 71
2019-10-01 05:00:00 12.6 5 Este 8 Nordeste 0 -- -- 71
2019-10-01 04:00:00 12.6 0 Calma 5 Nordeste 0 -- -- 74
2019-10-01 03:00:00 14.2 4 Nordeste 9 Nordeste 0 -- -- 68
2019-10-01 02:00:00 14.2 2 Noroeste 4 Sudeste 0 -- -- 74
2019-10-01 01:00:00 15.2 0 Calma 2 Este 0 -- -- 67
2019-10-01 00:00:00 16.1 0 Calma 5 Nordeste 0 -- -- 64
2019-09-30 23:00:00 17.6 0 Calma 4 Este 0 -- -- 60
2019-09-30 22:00:00 19.5 0 Calma 4 Nordeste 0 -- -- 53
2019-09-30 21:00:00 22.5 0 Calma 5 Sudeste 0 -- -- 44
2019-09-30 20:00:00 27.1 5 Sur 10 Sur 0 -- -- 32
2019-09-30 19:00:00 29.8 7 Sudoeste 15 Sur 0 -- -- 25
2019-09-30 18:00:00 30.5 12 Sudoeste 23 Sudoeste 0 -- -- 24
2019-09-30 17:00:00 30.2 11 Oeste 21 Oeste 0 -- -- 25
2019-09-30 16:00:00 29.5 10 Sudoeste 19 Sudoeste 0 -- -- 25
2019-09-30 15:00:00 28.3 10 Sudoeste 17 Sudoeste 0 -- -- 28
2019-09-30 14:00:00 26.6 5 Sudoeste 10 Sudoeste 0 -- -- 34
2019-09-30 13:00:00 24.6 3 Sudoeste 9 Sudoeste 0 -- -- 39
2019-09-30 12:00:00 22.4 3 Sudoeste 6 Este 0 -- -- 41
2019-09-30 11:00:00 19.8 3 Este 7 Nordeste 0 -- -- 48
2019-09-30 10:00:00 16 3 Nordeste 8 Este 0 -- -- 60
2019-09-30 09:00:00 12.7 4 Nordeste 8 Este 0 -- -- 70
2019-09-30 08:00:00 10.9 5 Nordeste 9 Nordeste 0 -- -- 71
2019-09-30 07:00:00 10.4 0 Calma 4 Sur 0 -- -- 77
2019-09-30 06:00:00 10.9 2 Norte 6 Nordeste 0 -- -- 75
2019-09-30 05:00:00 12 4 Este 9 Este 0 -- -- 68
2019-09-30 04:00:00 12.8 3 Nordeste 8 Este 0 -- -- 68
2019-09-30 03:00:00 13.6 4 Nordeste 6 Nordeste 0 -- -- 61
2019-09-30 02:00:00 14.9 4 Este 9 Nordeste 0 -- -- 56
2019-09-30 01:00:00 15.3 5 Nordeste 9 Este 0 -- -- 55
2019-09-30 00:00:00 16.2 0 Calma 5 Este 0 -- -- 62
2019-09-29 23:00:00 17.4 0 Calma 5 Norte 0 -- -- 57
2019-09-29 22:00:00 19.7 0 Calma 4 Nordeste 0 -- -- 53
2019-09-29 21:00:00 22 3 Nordeste 5 Sur 0 -- -- 44
2019-09-29 20:00:00 26.9 4 Sur 12 Sudoeste 0 -- -- 29
2019-09-29 19:00:00 29.5 9 Sudoeste 19 Sudoeste 0 -- -- 24
2019-09-29 18:00:00 30.4 12 Sudoeste 26 Sudoeste 0 -- -- 22
2019-09-29 17:00:00 30.4 10 Oeste 28 Oeste 0 -- -- 24
2019-09-29 16:00:00 30.1 16 Sudoeste 27 Sudoeste 0 -- -- 25
2019-09-29 15:00:00 28.7 9 Sudoeste 17 Sudoeste 0 -- -- 32
2019-09-29 14:00:00 26.6 8 Sudoeste 13 Sur 0 -- -- 40
2019-09-29 13:00:00 24.1 5 Sudoeste 10 Sudoeste 0 -- -- 52
2019-09-29 12:00:00 21.9 3 Noroeste 7 Oeste 0 -- -- 59
2019-09-29 11:00:00 19.1 4 Este 12 Este 0 -- -- 58
2019-09-29 10:00:00 15.1 3 Sur 6 Nordeste 0 -- -- 66
2019-09-29 09:00:00 12.3 3 Nordeste 6 Nordeste 0 -- -- 74
2019-09-29 08:00:00 11 2 Este 8 Nordeste 0 -- -- 76
2019-09-29 07:00:00 11.3 5 Este 8 Nordeste 0 -- -- 76
2019-09-29 06:00:00 11.2 3 Este 4 Este 0 -- -- 77
2019-09-29 05:00:00 11.7 0 Calma 6 Nordeste 0 -- -- 77
2019-09-29 04:00:00 12.4 4 Nordeste 7 Nordeste 0 -- -- 71
2019-09-29 03:00:00 13.3 5 Nordeste 7 Nordeste 0 -- -- 68
2019-09-29 02:00:00 14.5 5 Nordeste 10 Este 0 -- -- 59
2019-09-29 01:00:00 14.4 3 Nordeste 6 Nordeste 0 -- -- 62
2019-09-29 00:00:00 15.3 3 Norte 5 Nordeste 0 -- -- 64
2019-09-28 23:00:00 17.1 4 Nordeste 6 Nordeste 0 -- -- 52
2019-09-28 22:00:00 18.7 3 Nordeste 6 Nordeste 0 -- -- 57
2019-09-28 21:00:00 21.3 4 Nordeste 5 Nordeste 0 -- -- 48
2019-09-28 20:00:00 26.8 2 Sudoeste 8 Sur 0 -- -- 37
2019-09-28 19:00:00 29.7 4 Sur 14 Sudoeste 0 -- -- 24
2019-09-28 18:00:00 29.4 9 Sudoeste 18 Sudoeste 0 -- -- 22
2019-09-28 17:00:00 29.6 8 Sur 16 Sur 0 -- -- 23
2019-09-28 16:00:00 28.6 6 Sur 18 Sur 0 -- -- 25
2019-09-28 15:00:00 27.4 8 Sudoeste 18 Sudoeste 0 -- -- 29
2019-09-28 14:00:00 25.8 6 Sudoeste 9 Sudoeste 0 -- -- 36
2019-09-28 13:00:00 24.3 2 Sudoeste 6 Sudeste 0 -- -- 38
2019-09-28 12:00:00 22.4 2 Sudeste 9 Este 0 -- -- 46
2019-09-28 11:00:00 18.8 5 Este 11 Este 0 -- -- 54
2019-09-28 10:00:00 15.9 0 Calma 6 Este 0 -- -- 60
2019-09-28 09:00:00 13 3 Nordeste 6 Nordeste 0 -- -- 69
2019-09-28 08:00:00 11.5 4 Este 7 Este 0 -- -- 73
2019-09-28 07:00:00 12 2 Nordeste 7 Nordeste 0 -- -- 73
2019-09-28 06:00:00 13 4 Nordeste 10 Este 0 -- -- 66
2019-09-28 05:00:00 13.3 5 Este 9 Este 0 -- -- 66
2019-09-28 04:00:00 12.9 0 Calma 8 Este 0 -- -- 74
2019-09-28 03:00:00 13.7 5 Nordeste 9 Este 0 -- -- 70
2019-09-28 02:00:00 14.6 3 Este 6 Nordeste 0 -- -- 70
2019-09-28 01:00:00 15.8 0 Calma 6 Sudeste 0 -- -- 67
2019-09-28 00:00:00 17 2 Sur 13 Nordeste 0 -- -- 62
2019-09-27 23:00:00 18.4 8 Nordeste 12 Nordeste 0 -- -- 53
2019-09-27 22:00:00 19.8 3 Sur 5 Sur 0 -- -- 53
2019-09-27 21:00:00 22.3 0 Calma 6 Sur 0 -- -- 38
2019-09-27 20:00:00 26.1 5 Sur 14 Sudoeste 0 -- -- 31
2019-09-27 19:00:00 28.7 9 Sudoeste 17 Sudoeste 0 -- -- 26
2019-09-27 18:00:00 29.3 14 Sudoeste 26 Sudoeste 0 -- -- 25
2019-09-27 17:00:00 29.4 11 Sudoeste 26 Sur 0 -- -- 30
2019-09-27 16:00:00 28.7 12 Sudoeste 21 Oeste 0 -- -- 32
2019-09-27 15:00:00 27.5 9 Sudoeste 19 Oeste 0 -- -- 34
2019-09-27 14:00:00 26 5 Sudeste 12 Este 0 -- -- 42
2019-09-27 13:00:00 23.9 4 Sur 8 Sudoeste 0 -- -- 48
2019-09-27 12:00:00 21.8 3 Sudoeste 6 Nordeste 0 -- -- 56
2019-09-27 11:00:00 19.5 2 Sur 5 Sur 0 -- -- 64
2019-09-27 10:00:00 16.4 3 Oeste 7 Oeste 0 -- -- 78
2019-09-27 09:00:00 14.4 2 Norte 8 Este 0 -- -- 84
2019-09-27 08:00:00 13.1 3 Este 6 Nordeste 0 -- -- 84
2019-09-27 07:00:00 13.1 2 Nordeste 4 Este 0 -- -- 86
2019-09-27 06:00:00 13.7 0 Calma 6 Nordeste 0 -- -- 84
2019-09-27 05:00:00 14.2 0 Calma 4 Nordeste 0 -- -- 83
2019-09-27 04:00:00 14.8 0 Calma 4 Norte 0 -- -- 83
2019-09-27 03:00:00 15.6 0 Calma 8 Este 0 -- -- 80
2019-09-27 02:00:00 16.2 2 Este 6 Oeste 0 -- -- 77
2019-09-27 01:00:00 17 3 Noroeste 6 Noroeste 0 -- -- 75
2019-09-27 00:00:00 18 0 Calma 3 Sudoeste 0 -- -- 76
2019-09-26 23:00:00 19.1 0 Calma 3 Nordeste 0 -- -- 65
2019-09-26 22:00:00 20.5 0 Calma 5 Nordeste 0 -- -- 63
2019-09-26 21:00:00 22.6 0 Calma 4 Sudeste 0 -- -- 50
2019-09-26 20:00:00 26.2 3 Sudoeste 11 Sudoeste 0 -- -- 42
2019-09-26 19:00:00 28 6 Sudoeste 13 Sudoeste 0 -- -- 36
2019-09-26 18:00:00 28.9 3 Sudoeste 13 Sudoeste 0 -- -- 35
2019-09-26 17:00:00 28.2 8 Sur 18 Sur 0 -- -- 36
2019-09-26 16:00:00 27.3 8 Sudoeste 21 Sudoeste 0 -- -- 36
2019-09-26 15:00:00 26 12 Sudoeste 19 Sudoeste 0 -- -- 39
2019-09-26 14:00:00 24.8 12 Sudoeste 19 Oeste 0 -- -- 42
2019-09-26 13:00:00 23.1 6 Sudoeste 12 Sur 0 -- -- 47
2019-09-26 12:00:00 20.9 3 Oeste 7 Oeste 0 -- -- 55
2019-09-26 11:00:00 19.7 0 Calma 5 Este 0 -- -- 61
2019-09-26 10:00:00 16.9 3 Oeste 6 Nordeste 0 -- -- 67
2019-09-26 09:00:00 14.6 5 Nordeste 9 Este 0 -- -- 77
2019-09-26 08:00:00 13.3 3 Nordeste 8 Nordeste 0 -- -- 80
2019-09-26 07:00:00 13.5 4 Este 8 Este 0 -- -- 80
2019-09-26 06:00:00 13.8 2 Nordeste 9 Nordeste 0 -- -- 79
2019-09-26 05:00:00 13.8 4 Nordeste 6 Nordeste 0 -- -- 80
2019-09-26 04:00:00 14.1 0 Calma 6 Nordeste 0 -- -- 82
2019-09-26 03:00:00 14.8 3 Nordeste 5 Nordeste 0 -- -- 80
2019-09-26 02:00:00 15.3 0 Calma 8 Sur 0 -- -- 79
2019-09-26 01:00:00 16.3 3 Este 5 Nordeste 0 -- -- 73
2019-09-26 00:00:00 17.5 0 Calma 6 Nordeste 0 -- -- 70
2019-09-25 23:00:00 18.3 0 Calma 4 Nordeste 0 -- -- 71
2019-09-25 22:00:00 19.4 0 Calma 5 Sudoeste 0 -- -- 63
2019-09-25 21:00:00 21.3 4 Este 10 Sudeste 0 -- -- 51
2019-09-25 20:00:00 23.1 6 Sudeste 9 Sudeste 0 -- -- 47
2019-09-25 19:00:00 25.3 4 Sur 9 Sur 0 -- -- 37
2019-09-25 18:00:00 25.7 4 Sudoeste 14 Noroeste 0 -- -- 39
2019-09-25 17:00:00 25.6 7 Oeste 13 Oeste 0 -- -- 40
2019-09-25 16:00:00 25 5 Noroeste 13 Sur 0 -- -- 37
2019-09-25 15:00:00 23.8 7 Noroeste 15 Norte 0 -- -- 45
2019-09-25 14:00:00 23.3 3 Sudoeste 32 Nordeste 0 -- -- 47
2019-09-25 13:00:00 22.4 5 Este 15 Este 0 -- -- 51
2019-09-25 12:00:00 21.4 6 Norte 16 Norte 0 -- -- 53
2019-09-25 11:00:00 20 6 Este 11 Este 0 -- -- 57
2019-09-25 10:00:00 17.3 0 Calma 5 Sudeste 0 -- -- 64
2019-09-25 09:00:00 15.7 3 Sur 9 Sudoeste 0 -- -- 75
2019-09-25 08:00:00 14.7 9 Sudoeste 12 Sudoeste 0 -- -- 73
2019-09-25 07:00:00 15.8 3 Sudoeste 12 Sudoeste 0 -- -- 70
2019-09-25 06:00:00 16.3 0 Calma 16 Oeste 0 -- -- 71
2019-09-25 05:00:00 17.9 10 Oeste 20 Noroeste 0 -- -- 63
2019-09-25 04:00:00 18.4 10 Oeste 22 Noroeste 0 -- -- 65
2019-09-25 03:00:00 18.8 5 Oeste 15 Oeste 0 -- -- 73
2019-09-25 02:00:00 19.2 0 Calma 8 Sudeste 0 -- -- 79
2019-09-25 01:00:00 20.3 6 Sudeste 11 Oeste 0 -- -- 76
2019-09-25 00:00:00 20.7 9 Oeste 22 Sudoeste 0 -- -- 73
2019-09-24 23:00:00 21.8 8 Sudoeste 22 Oeste 0 -- -- 68
2019-09-24 22:00:00 22.4 19 Sudoeste 30 Sudoeste 0 -- -- 67
2019-09-24 21:00:00 23.4 20 Oeste 37 Sudoeste 0 -- -- 61
2019-09-24 20:00:00 24.8 14 Sudoeste 33 Sudoeste 0 -- -- 57
2019-09-24 19:00:00 26.6 21 Sudoeste 36 Sudoeste 0 -- -- 49
2019-09-24 18:00:00 27 23 Sudoeste 35 Sudoeste 0 -- -- 46
2019-09-24 17:00:00 27.1 19 Sudoeste 27 Sudoeste 0 -- -- 43
2019-09-24 16:00:00 26.9 18 Sudoeste 30 Sudoeste 0 -- -- 37
2019-09-24 15:00:00 25.7 19 Sudoeste 27 Sudoeste 0 -- -- 41
2019-09-24 14:00:00 24.5 18 Sudoeste 28 Sudoeste 0 -- -- 45
2019-09-24 13:00:00 22.9 13 Sudoeste 21 Oeste 0 -- -- 53
2019-09-24 12:00:00 20.1 12 Sur 18 Sudoeste 0 -- -- 60
2019-09-24 11:00:00 17.6 11 Sudoeste 17 Sur 0 -- -- 64
2019-09-24 10:00:00 14.5 5 Sudoeste 8 Sudoeste 0 -- -- 79
2019-09-24 09:00:00 12.5 0 Calma 5 Sur 0 -- -- 90
2019-09-24 08:00:00 11.1 0 Calma 4 Sur 0 -- -- 90
2019-09-24 07:00:00 11.9 0 Calma 3 Sudoeste 0 -- -- 90
2019-09-24 06:00:00 12.2 0 Calma 4 Sur 0 -- -- 88
2019-09-24 05:00:00 12.7 0 Calma 3 Sudeste 0 -- -- 87
2019-09-24 04:00:00 13.4 0 Calma 4 Oeste 0 -- -- 87
2019-09-24 03:00:00 14 2 Noroeste 6 Oeste 0 -- -- 84
2019-09-24 02:00:00 14.7 0 Calma 3 Sudeste 0 -- -- 84
2019-09-24 01:00:00 15.4 0 Calma 3 Sudoeste 0 -- -- 83
2019-09-24 00:00:00 16.3 0 Calma 4 Sudeste 0 -- -- 81
2019-09-23 23:00:00 17.2 0 Calma 2 Nordeste 0 -- -- 75
2019-09-23 22:00:00 18.2 3 Nordeste 5 Nordeste 0 -- -- 70
2019-09-23 21:00:00 19.9 0 Calma 7 Sudeste 0 -- -- 57
2019-09-23 20:00:00 22.4 4 Sur 13 Sur 0 -- -- 54
2019-09-23 19:00:00 23.5 9 Sudoeste 17 Sudoeste 0 -- -- 44
2019-09-23 18:00:00 24.1 8 Sur 18 Sudoeste 0 -- -- 43
2019-09-23 17:00:00 23.8 9 Sur 21 Sur 0 -- -- 44
2019-09-23 16:00:00 23.5 10 Sur 19 Sur 0 -- -- 49
2019-09-23 15:00:00 22.8 10 Sur 19 Sur 0 -- -- 49
2019-09-23 14:00:00 21.4 10 Sudoeste 20 Sudoeste 0 -- -- 55
2019-09-23 13:00:00 19.9 5 Sudoeste 11 Oeste 0 -- -- 64
2019-09-23 12:00:00 19 4 Sur 9 Sur 0 -- -- 59
2019-09-23 11:00:00 17.5 0 Calma 8 Este 0 -- -- 74
2019-09-23 10:00:00 15.1 5 Este 9 Este 0 -- -- 82
2019-09-23 09:00:00 12.6 5 Nordeste 8 Nordeste 0 -- -- 92
2019-09-23 08:00:00 11.4 2 Este 4 Este 0 -- -- 92
2019-09-23 07:00:00 11.5 2 Nordeste 4 Nordeste 0 -- -- 91
2019-09-23 06:00:00 12.1 3 Norte 4 Norte 0 -- -- 91
2019-09-23 05:00:00 12.5 0 Calma 5 Oeste 0 -- -- 90
2019-09-23 04:00:00 12.9 0 Calma 4 Oeste 0 -- -- 88
2019-09-23 03:00:00 13.5 3 Noroeste 4 Norte 0 -- -- 86
2019-09-23 02:00:00 14.1 2 Oeste 7 Sudoeste 0 -- -- 82
2019-09-23 01:00:00 14.7 4 Sudoeste 9 Sudoeste 0 -- -- 77
2019-09-23 00:00:00 15.7 0 Calma 6 Nordeste 0 -- -- 79
2019-09-22 23:00:00 16.3 3 Nordeste 5 Sur 0 -- -- 75
2019-09-22 22:00:00 17.5 4 Sur 6 Sur 0 -- -- 72
2019-09-22 21:00:00 18.8 3 Oeste 7 Sudoeste 0 -- -- 66
2019-09-22 20:00:00 20.4 6 Oeste 25 Sudoeste 0 -- -- 61
2019-09-22 19:00:00 21.9 18 Sudoeste 26 Sudoeste 0 -- -- 53
2019-09-22 18:00:00 23.1 17 Sudoeste 24 Oeste 0 -- -- 47
2019-09-22 17:00:00 23.1 17 Sudoeste 28 Sudoeste 0 -- -- 48
2019-09-22 16:00:00 22.5 16 Sudoeste 30 Oeste 0 -- -- 52
2019-09-22 15:00:00 21.8 18 Sudoeste 27 Sudoeste 0 -- -- 59
2019-09-22 14:00:00 20.9 17 Sudoeste 31 Sudoeste 0 -- -- 60
2019-09-22 13:00:00 20 17 Oeste 24 Sudoeste 0 -- -- 73
2019-09-22 12:00:00 19.3 13 Oeste 22 Sudoeste 0 -- -- 79
2019-09-22 11:00:00 18.9 12 Oeste 21 Sudoeste 0 -- -- 85
2019-09-22 10:00:00 18 8 Sudoeste 14 Sudoeste 0 -- -- 92
2019-09-22 09:00:00 17.3 3 Sur 11 Sur 0 -- -- 93
2019-09-22 08:00:00 17.1 5 Sur 14 Oeste 1.4 -- -- 92
2019-09-22 07:00:00 18 8 Sudoeste 17 Sur 0 -- -- 84
2019-09-22 06:00:00 18.1 8 Sur 16 Sur 0 -- -- 82
2019-09-22 05:00:00 18.2 3 Oeste 15 Sudoeste 0 -- -- 83
2019-09-22 04:00:00 18.3 8 Sudoeste 16 Sur 0 -- -- 81
2019-09-22 03:00:00 18.3 12 Sur 20 Sur 0 -- -- 80
2019-09-22 02:00:00 18.4 7 Sudoeste 10 Sudoeste 0 -- -- 88
2019-09-22 01:00:00 18.6 3 Sudoeste 6 Este 0 -- -- 88
2019-09-22 00:00:00 18.8 3 Sur 6 Sudeste 0 -- -- 87
2019-09-21 23:00:00 19.1 0 Calma 8 Oeste 0 -- -- 83
2019-09-21 22:00:00 19.6 3 Oeste 8 Noroeste 0 -- -- 82
2019-09-21 21:00:00 19.9 4 Oeste 10 Noroeste 0 -- -- 80
2019-09-21 20:00:00 21.3 0 Calma 6 Sur 0 -- -- 79
2019-09-21 19:00:00 21.5 5 Sur 8 Sudeste 0 -- -- 73
2019-09-21 18:00:00 21.6 3 Sur 9 Sudeste 0 -- -- 74
2019-09-21 17:00:00 21.6 5 Sur 8 Sudeste 0 -- -- 72
2019-09-21 16:00:00 21.2 2 Sudeste 19 Sur 0.2 -- -- 77
2019-09-21 15:00:00 21.6 5 Sudoeste 15 Sur 0 -- -- 67
2019-09-21 14:00:00 21.3 13 Sudoeste 22 Sur 0 -- -- 66
2019-09-21 13:00:00 21 13 Sudoeste 22 Sur 0 -- -- 67
2019-09-21 12:00:00 20.9 10 Sudoeste 20 Sudoeste 0 -- -- 75
2019-09-21 11:00:00 19.6 4 Oeste 8 Oeste 0 -- -- 81
2019-09-21 10:00:00 17.3 3 Oeste 6 Oeste 0 -- -- 91
2019-09-21 09:00:00 16.2 2 Oeste 5 Sudeste 0 -- -- 93
2019-09-21 08:00:00 15.8 0 Calma 4 Sudoeste 0 -- -- 92
2019-09-21 07:00:00 16.1 5 Oeste 9 Oeste 0 -- -- 91
2019-09-21 06:00:00 16.8 0 Calma 4 Sudoeste 0 -- -- 91
2019-09-21 05:00:00 17.4 4 Sudoeste 8 Oeste 0 -- -- 89
2019-09-21 04:00:00 17.6 0 Calma 5 Este 0 -- -- 89
2019-09-21 03:00:00 17.8 2 Nordeste 6 Nordeste 0 -- -- 88
2019-09-21 02:00:00 17.9 2 Noroeste 9 Noroeste 0 -- -- 86
2019-09-21 01:00:00 17.5 2 Norte 11 Este 0 -- -- 87
2019-09-21 00:00:00 17.4 2 Noroeste 12 Oeste 0.8 -- -- 88
2019-09-20 23:00:00 17.9 5 Sur 19 Oeste 0.2 -- -- 83
2019-09-20 22:00:00 18.5 5 Oeste 71 Sudeste 1.4 -- -- 74
2019-09-20 21:00:00 23.6 28 Sudeste 41 Sudeste 0 -- -- 62
2019-09-20 20:00:00 24.1 16 Sudeste 26 Sudeste 0 -- -- 58
2019-09-20 19:00:00 25 18 Sudeste 32 Sudeste 0 -- -- 55
2019-09-20 18:00:00 25.6 19 Sudeste 28 Sur 0 -- -- 56
2019-09-20 17:00:00 25.8 14 Este 26 Sudeste 0 -- -- 55
2019-09-20 16:00:00 25.6 14 Sudeste 25 Sudeste 0 -- -- 55
2019-09-20 15:00:00 24.9 11 Sudeste 23 Sudeste 0 -- -- 58
2019-09-20 14:00:00 24.3 13 Sudeste 26 Sudeste 0 -- -- 62
2019-09-20 13:00:00 24.1 17 Sudeste 27 Sudeste 0 -- -- 62
2019-09-20 12:00:00 23.5 16 Sudeste 30 Sudeste 0 -- -- 63
2019-09-20 11:00:00 22.4 17 Sudeste 28 Sudeste 0 -- -- 68
2019-09-20 10:00:00 19.9 8 Sudeste 17 Sudeste 0 -- -- 75
2019-09-20 09:00:00 18.8 2 Nordeste 6 Nordeste 0 -- -- 75
2019-09-20 08:00:00 18.6 2 Nordeste 11 Nordeste 0 -- -- 75
2019-09-20 07:00:00 19.2 5 Nordeste 17 Este 0 -- -- 72
2019-09-20 06:00:00 19.9 7 Nordeste 18 Nordeste 0 -- -- 70
2019-09-20 05:00:00 19.7 5 Norte 13 Nordeste 0 -- -- 73
2019-09-20 04:00:00 20.4 7 Este 24 Sudeste 0 -- -- 68
2019-09-20 03:00:00 20.6 7 Oeste 11 Oeste 0 -- -- 67
2019-09-20 02:00:00 20.7 2 Noroeste 13 Sudeste 0 -- -- 68
2019-09-20 01:00:00 20.8 2 Norte 9 Norte 0 -- -- 67
2019-09-20 00:00:00 21.8 4 Norte 12 Nordeste 0 -- -- 65
2019-09-19 23:00:00 22 7 Nordeste 13 Norte 0 -- -- 64
2019-09-19 22:00:00 22.6 5 Nordeste 7 Sudeste 0 -- -- 60
2019-09-19 21:00:00 24.5 0 Calma 9 Sur 0 -- -- 55
2019-09-19 20:00:00 27.7 6 Sur 10 Oeste 0 -- -- 43
2019-09-19 19:00:00 28.9 7 Sudoeste 13 Sudoeste 0 -- -- 39
2019-09-19 18:00:00 29.7 6 Sudoeste 12 Sudoeste 0 -- -- 38
2019-09-19 17:00:00 28.8 3 Oeste 17 Sudoeste 0 -- -- 39
2019-09-19 16:00:00 28.7 7 Oeste 13 Sudoeste 0 -- -- 42
2019-09-19 15:00:00 27.4 6 Sur 14 Noroeste 0 -- -- 49
2019-09-19 14:00:00 27 4 Noroeste 9 Norte 0 -- -- 55
2019-09-19 13:00:00 25.4 4 Noroeste 10 Nordeste 0 -- -- 55
2019-09-19 12:00:00 23.9 3 Norte 9 Nordeste 0 -- -- 60
2019-09-19 11:00:00 22.4 2 Nordeste 8 Nordeste 0 -- -- 63
2019-09-19 10:00:00 20.2 4 Nordeste 8 Nordeste 0 -- -- 71
2019-09-19 09:00:00 17.5 3 Nordeste 8 Nordeste 0 -- -- 82
2019-09-19 08:00:00 16.4 3 Nordeste 6 Nordeste 0 -- -- 85
2019-09-19 07:00:00 16.5 3 Nordeste 8 Este 0 -- -- 84
2019-09-19 06:00:00 16.6 4 Nordeste 6 Este 0 -- -- 85
2019-09-19 05:00:00 16.6 2 Nordeste 4 Nordeste 0 -- -- 85
2019-09-19 04:00:00 17.2 2 Este 9 Nordeste 0 -- -- 83
2019-09-19 03:00:00 17.7 4 Nordeste 6 Este 0 -- -- 80
2019-09-19 02:00:00 18.3 4 Nordeste 8 Este 0 -- -- 78
2019-09-19 01:00:00 18.6 5 Nordeste 8 Nordeste 0 -- -- 79
2019-09-19 00:00:00 19.3 3 Oeste 9 Este 0 -- -- 78
2019-09-18 23:00:00 20.2 4 Noroeste 8 Noroeste 0 -- -- 73
2019-09-18 22:00:00 21.5 4 Nordeste 6 Nordeste 0 -- -- 69
2019-09-18 21:00:00 23.6 0 Calma 5 Sudoeste 0 -- -- 65
2019-09-18 20:00:00 26.3 4 Sudoeste 11 Sudoeste 0 -- -- 56
2019-09-18 19:00:00 27.3 10 Sudoeste 16 Sudoeste 0 -- -- 47
2019-09-18 18:00:00 28.3 4 Sudoeste 15 Oeste 0 -- -- 40
2019-09-18 17:00:00 28 4 Sur 10 Sudeste 0 -- -- 42
2019-09-18 16:00:00 27 7 Sudoeste 13 Sudoeste 0 -- -- 46
2019-09-18 15:00:00 26.1 5 Sudoeste 13 Sudoeste 0 -- -- 49
2019-09-18 14:00:00 24.7 4 Sudoeste 9 Sudoeste 0 -- -- 51
2019-09-18 13:00:00 23.1 2 Oeste 9 Oeste 0 -- -- 56
2019-09-18 12:00:00 22.2 3 Este 9 Este 0 -- -- 61
2019-09-18 11:00:00 18.8 0 Calma 4 Sur 0 -- -- 76
2019-09-18 10:00:00 16.6 0 Calma 3 Oeste 0 -- -- 86
2019-09-18 09:00:00 15.7 2 Oeste 5 Sudoeste 0 -- -- 88
2019-09-18 08:00:00 15.8 4 Oeste 6 Oeste 0 -- -- 88
2019-09-18 07:00:00 16.2 3 Sudoeste 7 Sur 0 -- -- 85
2019-09-18 06:00:00 16.8 3 Nordeste 10 Este 0 -- -- 81
2019-09-18 05:00:00 16.4 4 Este 8 Este 0 -- -- 83
2019-09-18 04:00:00 16.2 6 Nordeste 15 Nordeste 0 -- -- 83
2019-09-18 03:00:00 16.4 4 Nordeste 8 Nordeste 0 -- -- 82
2019-09-18 02:00:00 17.2 5 Este 9 Sur 0 -- -- 78
2019-09-18 01:00:00 18.2 6 Sur 22 Sudoeste 0 -- -- 74
2019-09-18 00:00:00 18.8 12 Sudoeste 17 Sudoeste 0 -- -- 73
2019-09-17 23:00:00 19.5 3 Nordeste 10 Este 0 -- -- 71
2019-09-17 22:00:00 20.5 5 Sudeste 21 Oeste 0 -- -- 63
2019-09-17 21:00:00 21.9 14 Oeste 35 Sur 0 -- -- 58